PORTS® Data Listing: 8637689 Yorktown USCG Training Center, VA

CO-OPS RAW PORTS DATA

************************      PRELIMINARY DATA      ************************** 

     THIS RAW DATA HAS NOT BEEN SUBJECT TO THE NATIONAL OCEAN SERVICE'S        
     QUALITY CONTROL OR QUALITY ASSURANCE PROCEDURES AND DOES NOT MEET         
     THE CRITERIA AND STANDARDS OF OFFICIAL NATIONAL OCEAN SERVICE             
     DATA.  IT IS RELEASED FOR LIMITED PUBLIC USE AS PRELIMINARY DATA TO       
     BE USED ONLY WITH APPROPRIATE CAUTION.                                    

************************      PRELIMINARY DATA      ************************** 


       CD   -   Calendar date
       T    -   Time
       TZ   -   Timezone
       PW   -   Predicted water level (feet above MLLW)
       OW   -   Observed water level (feet above MLLW)
       WS   -   Wind speed (knots)
       WD   -   Wind direction (degrees true)
       WG   -   Wind gust (knots)
       AT   -   Air temperature (degrees farenheit)
       WT   -   Water temperature (degrees farenheit)
       AP   -   Air pressure (millibars)
       SA   -   Salinty (PSU - Practical Salinity Units)
       SG   -   Specific gravity
       RH   -   Relative humidity
       AG   -   Air gap (feet)
       VI   -   Visibility (nautical miles)

       ** NOTE **
       A variable that has its data fields filled with "9"s, indicates that
       data was not collected for that sample period.
       **********


STATION NAME: Yorktown USCG Training Center (8637689)
****************************************************************************************************
    CD       T    TZ    PW     OW    WS   WD   WG    AT    WT    AP    SA    SG     RH    AG   VI
****************************************************************************************************
2020/01/18 05:30 EST    1.51   1.69    5   41    6  34.5  47.3 1036.5 17.2  1.014 -99.9 -99.99 -9.99
2020/01/18 05:36 EST    1.47   1.66    4   69    6  34.5  47.1 1036.5 17.2  1.014 -99.9 -99.99 -9.99
2020/01/18 05:42 EST    1.43   1.63    2   90    3  34.5  45.7 1036.3 17.2  1.014 -99.9 -99.99 -9.99
2020/01/18 05:48 EST    1.38   1.59    4   74    6  34.9  47.1 1036.1 17.1  1.014 -99.9 -99.99 -9.99
2020/01/18 05:54 EST    1.34   1.56    3  132    4  34.9  47.8 1035.9 17.0  1.014 -99.9 -99.99 -9.99
2020/01/18 06:00 EST    1.29   1.53    3  150    4  35.1  48.2 1035.9 17.1  1.014 -99.9 -99.99 -9.99
2020/01/18 06:06 EST    1.24   1.49    4  153    4  34.9  48.4 1035.8 17.2  1.014 -99.9 -99.99 -9.99
2020/01/18 06:12 EST    1.19   1.46    4  124    7  34.9  48.6 1035.7 17.3  1.014 -99.9 -99.99 -9.99
2020/01/18 06:18 EST    1.14   1.42    5  115    5  34.9  48.4 1035.8 17.3  1.014 -99.9 -99.99 -9.99
2020/01/18 06:24 EST    1.10   1.38    4  113    5  35.1  48.6 1035.9 17.3  1.014 -99.9 -99.99 -9.99
2020/01/18 06:30 EST    1.05   1.35    3  138    5  35.2  48.7 1035.7 17.6  1.014 -99.9 -99.99 -9.99
2020/01/18 06:36 EST    1.00   1.31    4  144    5  35.2  48.6 1035.7 17.4  1.014 -99.9 -99.99 -9.99
2020/01/18 06:42 EST    0.95   1.27    3  120    5  35.2  48.6 1035.8 17.4  1.014 -99.9 -99.99 -9.99
2020/01/18 06:48 EST    0.90   1.23    2  107    2  35.2  48.6 1035.8 17.4  1.014 -99.9 -99.99 -9.99
2020/01/18 06:54 EST    0.85   1.20    1  151    2  35.4  48.2 1035.7 17.3  1.014 -99.9 -99.99 -9.99
2020/01/18 07:00 EST    0.79   1.16    4  243    5  35.2  48.4 1035.9 17.2  1.014 -99.9 -99.99 -9.99
2020/01/18 07:06 EST    0.74   1.11    2  205    5  35.2  48.2 1035.7 17.1  1.014 -99.9 -99.99 -9.99
2020/01/18 07:12 EST    0.69   1.07    2  195    3  35.1  47.8 1035.7 17.0  1.014 -99.9 -99.99 -9.99
2020/01/18 07:18 EST    0.64   1.04    1  149    2  35.1  47.5 1035.4 16.8  1.014 -99.9 -99.99 -9.99
2020/01/18 07:24 EST    0.59   1.00    3  121    5  35.2  47.1 1035.2 16.6  1.014 -99.9 -99.99 -9.99
2020/01/18 07:30 EST    0.55   0.97    4  140    5  35.6  47.1 1035.3 16.6  1.014 -99.9 -99.99 -9.99
2020/01/18 07:36 EST    0.50   0.99    3  137    6  35.8  47.1 1035.4 16.6  1.014 -99.9 -99.99 -9.99
2020/01/18 07:42 EST    0.45   0.90    2  134    5  35.8  47.1 1035.3 16.6  1.014 -99.9 -99.99 -9.99
2020/01/18 07:48 EST    0.40   0.85    2  184    4  36.0  47.1 1035.4 16.6  1.014 -99.9 -99.99 -9.99
2020/01/18 07:54 EST    0.36   0.81    3  186    4  35.6  47.1 1035.2 16.6  1.014 -99.9 -99.99 -9.99
2020/01/18 08:00 EST    0.32   0.77    1  185    4  35.8  47.3 1035.1 16.6  1.014 -99.9 -99.99 -9.99
2020/01/18 08:06 EST    0.27   0.73    2  198    3  35.6  47.5 1035.0 16.7  1.014 -99.9 -99.99 -9.99
2020/01/18 08:12 EST    0.23   0.68    0  225    3  35.6  47.7 1034.9 16.7  1.014 -99.9 -99.99 -9.99
2020/01/18 08:18 EST    0.19   0.64    3  148    4  35.8  47.5 1034.7 16.8  1.014 -99.9 -99.99 -9.99
2020/01/18 08:24 EST    0.15   0.59    4  141    5  35.8  47.5 1034.5 16.9  1.014 -99.9 -99.99 -9.99
2020/01/18 08:30 EST    0.12   0.57    2  146    5  36.1  47.5 1034.6 16.9  1.014 -99.9 -99.99 -9.99
2020/01/18 08:36 EST    0.09   0.54    3  157    4  36.1  47.7 1034.6 16.9  1.014 -99.9 -99.99 -9.99
2020/01/18 08:42 EST    0.05   0.53    3  196    4  36.1  47.7 1034.6 16.9  1.014 -99.9 -99.99 -9.99
2020/01/18 08:48 EST    0.02   0.51    2  160    4  36.3  47.7 1034.4 16.9  1.014 -99.9 -99.99 -9.99
2020/01/18 08:54 EST   -0.00   0.50    3  168    4  36.3  47.7 1034.3 16.9  1.014 -99.9 -99.99 -9.99
2020/01/18 09:00 EST   -0.03   0.48    3  152    5  36.1  47.7 1034.1 16.9  1.014 -99.9 -99.99 -9.99
2020/01/18 09:06 EST   -0.05   0.46    3  161    5  36.5  47.7 1034.2 17.0  1.014 -99.9 -99.99 -9.99
2020/01/18 09:12 EST   -0.07   0.45    4  157    5  36.3  47.7 1034.0 17.0  1.014 -99.9 -99.99 -9.99
2020/01/18 09:18 EST   -0.09   0.43    5  155    7  36.7  47.8 1033.8 16.9  1.014 -99.9 -99.99 -9.99
2020/01/18 09:24 EST   -0.10   0.42    4  151    6  36.9  47.8 1033.6 16.9  1.014 -99.9 -99.99 -9.99
2020/01/18 09:30 EST   -0.11   0.41    6  153    7  37.0  47.8 1033.6 16.9  1.014 -99.9 -99.99 -9.99
2020/01/18 09:36 EST   -0.12   0.39    5  165    7  37.4  47.8 1033.6 16.9  1.014 -99.9 -99.99 -9.99
2020/01/18 09:42 EST   -0.13   0.38    6  154    8  37.2  47.8 1033.4 16.9  1.014 -99.9 -99.99 -9.99
2020/01/18 09:48 EST   -0.14   0.38    6  172    8  37.4  47.8 1033.4 16.9  1.014 -99.9 -99.99 -9.99
2020/01/18 09:54 EST   -0.14   0.38    5  163    7  37.6  47.8 1033.4 16.9  1.014 -99.9 -99.99 -9.99
2020/01/18 10:00 EST   -0.14   0.38    4  155    6  37.8  47.8 1033.5 16.9  1.014 -99.9 -99.99 -9.99
2020/01/18 10:06 EST   -0.13   0.40    4  174    6  37.9  47.8 1033.4 17.0  1.014 -99.9 -99.99 -9.99
2020/01/18 10:12 EST   -0.13   0.42    4  161    8  38.1  47.8 1033.4 16.9  1.014 -99.9 -99.99 -9.99
2020/01/18 10:18 EST   -0.12   0.44    5  171    6  38.1  47.7 1033.4 16.9  1.014 -99.9 -99.99 -9.99
2020/01/18 10:24 EST   -0.11   0.46    5  167    8  37.9  47.7 1033.4 16.9  1.014 -99.9 -99.99 -9.99
2020/01/18 10:30 EST   -0.09   0.48    4  203    6  37.9  47.7 1033.3 16.8  1.014 -99.9 -99.99 -9.99
2020/01/18 10:36 EST   -0.08   0.51    5  185    7  38.1  47.7 1033.0 16.8  1.014 -99.9 -99.99 -9.99
2020/01/18 10:42 EST   -0.06   0.53    7  170    8  38.1  47.7 1032.7 16.9  1.014 -99.9 -99.99 -9.99
2020/01/18 10:48 EST   -0.04   0.55    7  163    9  38.5  47.7 1032.4 16.9  1.014 -99.9 -99.99 -9.99
2020/01/18 10:54 EST   -0.01   0.57    6  166    9  38.8  47.8 1032.2 16.9  1.014 -99.9 -99.99 -9.99
2020/01/18 11:00 EST    0.01   0.60    5  179    7  39.0  47.8 1032.1 16.9  1.014 -99.9 -99.99 -9.99
2020/01/18 11:06 EST    0.04   0.63    5  179    8  39.0  47.8 1031.9 16.9  1.014 -99.9 -99.99 -9.99
2020/01/18 11:12 EST    0.07   0.66    5  177    8  39.2  47.8 1031.7 16.9  1.014 -99.9 -99.99 -9.99
2020/01/18 11:18 EST    0.10   0.70    4  172    6  39.4  47.8 1031.6 16.9  1.014 -99.9 -99.99 -9.99
2020/01/18 11:24 EST    0.14   0.75    8  173   11  39.6  47.8 1031.3 16.8  1.014 -99.9 -99.99 -9.99
2020/01/18 11:30 EST    0.18   0.79    7  163    9  39.9  47.8 1031.3 16.8  1.014 -99.9 -99.99 -9.99
2020/01/18 11:36 EST    0.21   0.84    5  185    7  39.9  47.8 1031.0 16.9  1.014 -99.9 -99.99 -9.99
2020/01/18 11:42 EST    0.25   0.89    5  169    8  40.3  47.8 1030.6 16.8  1.014 -99.9 -99.99 -9.99
2020/01/18 11:48 EST    0.30   0.94    7  175    8  40.1  47.8 1030.4 16.9  1.014 -99.9 -99.99 -9.99
2020/01/18 11:54 EST    0.34   0.98    8  171   10  40.5  47.8 1030.2 16.9  1.014 -99.9 -99.99 -9.99
2020/01/18 12:00 EST    0.39   1.03    8  181   11  40.3  47.8 1029.8 16.9  1.014 -99.9 -99.99 -9.99
2020/01/18 12:06 EST    0.43   1.07    8  180   12  40.3  47.8 1029.5 16.9  1.014 -99.9 -99.99 -9.99
2020/01/18 12:12 EST    0.48   1.12    7  184    9  40.6  47.8 1029.2 16.9  1.014 -99.9 -99.99 -9.99
2020/01/18 12:18 EST    0.53   1.17    8  165   11  40.8  47.8 1028.9 16.9  1.014 -99.9 -99.99 -9.99
2020/01/18 12:24 EST    0.58   1.21    9  166   12  40.6  47.8 1028.8 16.9  1.014 -99.9 -99.99 -9.99
2020/01/18 12:30 EST    0.63   1.26    7  182   11  40.8  47.8 1028.8 16.9  1.014 -99.9 -99.99 -9.99
2020/01/18 12:36 EST    0.68   1.30    8  176   10  40.8  47.7 1028.5 17.0  1.014 -99.9 -99.99 -9.99
2020/01/18 12:42 EST    0.74   1.34   10  168   12  41.0  47.7 1028.3 17.0  1.014 -99.9 -99.99 -9.99
2020/01/18 12:48 EST    0.79   1.38    6  182   10  41.2  47.7 1027.9 16.9  1.014 -99.9 -99.99 -9.99
2020/01/18 12:54 EST    0.84   1.43    8  187   11  41.4  47.8 1027.6 16.9  1.014 -99.9 -99.99 -9.99
2020/01/18 13:00 EST    0.90   1.49    7  183   11  41.5  47.7 1027.3 16.9  1.014 -99.9 -99.99 -9.99
2020/01/18 13:06 EST    0.95   1.55    8  177   12  41.5  47.7 1027.0 16.9  1.014 -99.9 -99.99 -9.99
2020/01/18 13:12 EST    1.00   1.60   10  171   14  41.7  47.7 1026.8 16.9  1.014 -99.9 -99.99 -9.99
2020/01/18 13:18 EST    1.06   1.66   11  175   13  41.7  47.7 1026.5 16.9  1.014 -99.9 -99.99 -9.99
2020/01/18 13:24 EST    1.11   1.71    9  175   12  42.1  47.7 1026.3 17.0  1.014 -99.9 -99.99 -9.99
2020/01/18 13:30 EST    1.16   1.77   10  189   12  42.1  47.7 1026.1 17.0  1.014 -99.9 -99.99 -9.99
2020/01/18 13:36 EST    1.21   1.81   12  169   16  42.1  47.7 1025.5 17.0  1.014 -99.9 -99.99 -9.99
2020/01/18 13:42 EST    1.26   1.85   11  175   17  42.3  47.8 1025.4 17.0  1.014 -99.9 -99.99 -9.99
2020/01/18 13:48 EST    1.31   1.89    9  179   15  42.4  48.0 1025.3 17.1  1.014 -99.9 -99.99 -9.99
2020/01/18 13:54 EST    1.35   1.93   12  170   16  42.4  48.0 1024.9 17.1  1.014 -99.9 -99.99 -9.99
2020/01/18 14:00 EST    1.39   2.01   11  181   17  42.4  48.0 1024.8 17.1  1.014 -99.9 -99.99 -9.99
2020/01/18 14:06 EST    1.44   2.00   10  184   16  42.1  48.0 1024.6 17.1  1.014 -99.9 -99.99 -9.99
2020/01/18 14:12 EST    1.48   2.02   10  184   17  41.9  48.0 1024.5 17.2  1.014 -99.9 -99.99 -9.99
2020/01/18 14:18 EST    1.51   2.05    6  177   11  41.9  48.2 1024.3 17.1  1.014 -99.9 -99.99 -9.99
2020/01/18 14:24 EST    1.55   2.08    8  172   10  41.9  48.2 1024.2 17.1  1.014 -99.9 -99.99 -9.99
2020/01/18 14:30 EST    1.58   2.16    8  175   10  41.9  48.2 1024.1 17.2  1.014 -99.9 -99.99 -9.99
2020/01/18 14:36 EST    1.61   2.15    7  186    9  42.1  48.0 1024.0 17.2  1.014 -99.9 -99.99 -9.99
2020/01/18 14:42 EST    1.63   2.12    7  174   11  42.3  48.0 1023.6 17.2  1.014 -99.9 -99.99 -9.99
2020/01/18 14:48 EST    1.66   2.13    8  177   11  42.4  48.0 1023.7 17.2  1.014 -99.9 -99.99 -9.99
2020/01/18 14:54 EST    1.68   2.13   12  170   14  42.8  48.2 1023.4 17.1  1.014 -99.9 -99.99 -9.99
2020/01/18 15:00 EST    1.70   2.13   10  169   14  43.0  48.2 1023.1 17.2  1.014 -99.9 -99.99 -9.99
2020/01/18 15:06 EST    1.71   2.13   11  172   14  43.2  48.2 1022.9 17.2  1.014 -99.9 -99.99 -9.99
2020/01/18 15:12 EST    1.72   2.14   12  174   15  43.5  48.2 1022.8 17.2  1.014 -99.9 -99.99 -9.99
2020/01/18 15:18 EST    1.73   2.13    9  174   12  43.9  48.4 1022.6 17.2  1.014 -99.9 -99.99 -9.99
2020/01/18 15:24 EST    1.74   2.14   10  173   12  44.1  48.4 1022.5 17.3  1.014 -99.9 -99.99 -9.99
2020/01/18 15:30 EST    1.74   2.15   10  181   15  44.4  48.4 1022.4 17.4  1.014 -99.9 -99.99 -9.99
2020/01/18 15:36 EST    1.74   2.15    6  181   12  44.8  48.6 1022.2 17.4  1.014 -99.9 -99.99 -9.99
2020/01/18 15:42 EST    1.74   2.16    8  185   12  44.8  48.6 1022.1 17.5  1.014 -99.9 -99.99 -9.99
2020/01/18 15:48 EST    1.74   2.16    7  194   11  45.0  48.6 1022.0 17.5  1.014 -99.9 -99.99 -9.99
2020/01/18 15:54 EST    1.73   2.15    6  191   12  45.0  48.6 1021.9 17.5  1.014 -99.9 -99.99 -9.99
2020/01/18 16:00 EST    1.72   2.15    7  195   12  45.1  48.6 1021.7 17.6  1.014 -99.9 -99.99 -9.99
2020/01/18 16:06 EST    1.71   2.14   10  188   14  45.1  48.7 1021.4 17.6  1.014 -99.9 -99.99 -9.99
2020/01/18 16:12 EST    1.69   2.12   10  186   15  45.1  48.7 1021.2 17.4  1.014 -99.9 -99.99 -9.99
2020/01/18 16:18 EST    1.68   2.10    8  197   12  45.1  48.7 1021.1 17.6  1.014 -99.9 -99.99 -9.99
2020/01/18 16:24 EST    1.66   2.08    6  190   11  45.1  48.7 1020.9 17.7  1.015 -99.9 -99.99 -9.99
2020/01/18 16:30 EST    1.64   2.05   10  194   14  45.1  48.7 1020.8 17.7  1.014 -99.9 -99.99 -9.99
2020/01/18 16:36 EST    1.62   2.02    6  218   12  45.1  48.7 1020.9 17.7  1.015 -99.9 -99.99 -9.99
2020/01/18 16:42 EST    1.59   2.00    7  214    9  45.1  48.6 1020.7 17.7  1.015 -99.9 -99.99 -9.99
2020/01/18 16:48 EST    1.57   1.98    6  203    9  45.1  48.6 1020.6 17.7  1.014 -99.9 -99.99 -9.99
2020/01/18 16:54 EST    1.54   1.95    7  214   10  45.3  48.7 1020.6 17.6  1.014 -99.9 -99.99 -9.99
2020/01/18 17:00 EST    1.51   1.92    5  216   11  45.1  48.7 1020.6 17.6  1.014 -99.9 -99.99 -9.99
2020/01/18 17:06 EST    1.48   1.89    5  215    7  45.0  48.7 1020.4 17.6  1.014 -99.9 -99.99 -9.99
2020/01/18 17:12 EST    1.45   1.87    5  208    8  44.8  48.7 1020.2 17.7  1.014 -99.9 -99.99 -9.99
2020/01/18 17:18 EST    1.41   1.84    5  199    7  44.8  48.7 1020.1 17.6  1.014 -99.9 -99.99 -9.99
2020/01/18 17:24 EST    1.38   1.82    3  218    5  44.8  48.7 1020.1 17.6  1.014 -99.9 -99.99 -9.99
2020/01/18 17:30 EST    1.34   1.80    4  219    5  44.6  48.6 1020.0 17.7  1.014 -99.9 -99.99 -9.99
2020/01/18 17:36 EST    1.31   1.79    3  224    4  44.6  48.6 1019.9 17.6  1.014 -99.9 -99.99 -9.99
2020/01/18 17:42 EST    1.27   1.77    3  227    5  44.4  48.6 1019.7 17.6  1.014 -99.9 -99.99 -9.99
2020/01/18 17:48 EST    1.23   1.76    3  232    5  44.2  48.7 1019.6 17.8  1.015 -99.9 -99.99 -9.99
2020/01/18 17:54 EST    1.19   1.75    4  245    5  44.2  48.7 1019.7 17.8  1.015 -99.9 -99.99 -9.99
2020/01/18 18:00 EST    1.15   1.73    4  271    5  44.1  48.7 1019.7 17.8  1.015 -99.9 -99.99 -9.99
2020/01/18 18:06 EST    1.11   1.72    4  261    5  44.1  48.6 1019.5 18.3  1.015 -99.9 -99.99 -9.99
2020/01/18 18:12 EST    1.07   1.69    4  254    4  43.9  48.6 1019.4 18.9  1.015 -99.9 -99.99 -9.99
2020/01/18 18:18 EST    1.03   1.67    5  237    6  43.9  48.4 1019.3 18.3  1.015 -99.9 -99.99 -9.99
2020/01/18 18:24 EST    0.98   1.64    5  215    6  43.9  48.4 1019.1 18.6  1.015 -99.9 -99.99 -9.99
2020/01/18 18:30 EST    0.94   1.62    5  221    7  44.1  48.6 1019.0 19.6  1.016 -99.9 -99.99 -9.99
2020/01/18 18:36 EST    0.89   1.60    4  216    6  43.9  48.6 1018.9 19.8  1.016 -99.9 -99.99 -9.99
2020/01/18 18:42 EST    0.85   1.57    4  198    7  44.1  48.7 1018.5 19.7  1.016 -99.9 -99.99 -9.99
2020/01/18 18:48 EST    0.80   1.55    6  189    8  44.2  48.7 1018.3 19.7  1.016 -99.9 -99.99 -9.99
2020/01/18 18:54 EST    0.75   1.53    6  202    8  44.6  48.7 1018.3 19.8  1.016 -99.9 -99.99 -9.99
2020/01/18 19:00 EST    0.71   1.51    7  216   11  44.8  48.6 1018.2 19.8  1.016 -99.9 -99.99 -9.99
2020/01/18 19:06 EST    0.66   1.50    7  213   10  44.8  48.7 1018.1 19.7  1.016 -99.9 -99.99 -9.99
2020/01/18 19:12 EST    0.61   1.48    7  205    9  44.8  48.6 1017.9 19.7  1.016 -99.9 -99.99 -9.99
2020/01/18 19:18 EST    0.56   1.46    7  210   12  45.1  48.6 1017.8 19.7  1.016 -99.9 -99.99 -9.99
2020/01/18 19:24 EST    0.51   1.43    7  216   10  45.0  48.6 1017.7 19.7  1.016 -99.9 -99.99 -9.99
2020/01/18 19:30 EST    0.47   1.41    6  215    9  45.1  48.6 1017.5 19.6  1.016 -99.9 -99.99 -9.99
2020/01/18 19:36 EST    0.42   1.39    7  231   10  45.1  48.6 1017.5 19.6  1.016 -99.9 -99.99 -9.99
2020/01/18 19:42 EST    0.37   1.36    7  247   10  45.3  48.2 1017.6 19.4  1.016 -99.9 -99.99 -9.99
2020/01/18 19:48 EST    0.33   1.34    9  239   11  45.3  48.0 1017.5 19.3  1.016 -99.9 -99.99 -9.99
2020/01/18 19:54 EST    0.28   1.29    8  238   11  45.3  48.0 1017.4 19.3  1.016 -99.9 -99.99 -9.99
2020/01/18 20:00 EST    0.24   1.26    7  239   10  45.1  47.8 1017.2 19.3  1.016 -99.9 -99.99 -9.99
2020/01/18 20:06 EST    0.20   1.22    6  249   11  45.1  47.8 1017.2 19.2  1.016 -99.9 -99.99 -9.99
2020/01/18 20:12 EST    0.15   1.19    7  246   10  45.0  47.8 1017.1 19.1  1.016 -99.9 -99.99 -9.99
2020/01/18 20:18 EST    0.11   1.16    8  254   11  44.8  47.8 1017.1 17.2  1.014 -99.9 -99.99 -9.99
2020/01/18 20:24 EST    0.07   1.12    7  253   10  44.6  48.0 1017.0 17.2  1.014 -99.9 -99.99 -9.99
2020/01/18 20:30 EST    0.04   1.09    7  256   12  44.6  48.0 1016.9 17.3  1.014 -99.9 -99.99 -9.99
2020/01/18 20:36 EST   -0.00   1.06    8  262   10  44.6  47.8 1016.8 17.2  1.014 -99.9 -99.99 -9.99
2020/01/18 20:42 EST   -0.04   1.01    7  248   11  44.6  47.7 1016.6 17.0  1.014 -99.9 -99.99 -9.99
2020/01/18 20:48 EST   -0.07   0.98    9  255   11  44.4  47.8 1016.4 17.0  1.014 -99.9 -99.99 -9.99
2020/01/18 20:54 EST   -0.10   0.94    8  254   11  44.4  47.8 1016.4 17.1  1.014 -99.9 -99.99 -9.99
2020/01/18 21:00 EST   -0.13   0.91    7  256   12  44.2  48.0 1016.2 17.1  1.014 -99.9 -99.99 -9.99
2020/01/18 21:06 EST   -0.15   0.88    8  239   11  44.2  48.0 1016.0 17.2  1.014 -99.9 -99.99 -9.99
2020/01/18 21:12 EST   -0.17   0.84    7  243    9  44.2  48.2 1015.8 17.3  1.014 -99.9 -99.99 -9.99
2020/01/18 21:18 EST   -0.19   0.80    8  234   11  44.4  48.2 1015.7 17.3  1.014 -99.9 -99.99 -9.99
2020/01/18 21:24 EST   -0.21   0.77    7  241   11  44.4  48.2 1015.6 17.3  1.014 -99.9 -99.99 -9.99
2020/01/18 21:30 EST   -0.23   0.75    9  241   11  44.4  48.2 1015.6 17.2  1.014 -99.9 -99.99 -9.99
2020/01/18 21:36 EST   -0.24   0.73    9  237   12  44.4  48.2 1015.4 17.2  1.014 -99.9 -99.99 -9.99
2020/01/18 21:42 EST   -0.25   0.71    9  244   14  44.4  48.0 1015.4 17.1  1.014 -99.9 -99.99 -9.99
2020/01/18 21:48 EST   -0.26   0.69   10  237   14  44.2  48.0 1015.2 17.1  1.014 -99.9 -99.99 -9.99
2020/01/18 21:54 EST   -0.26   0.67    8  233   11  44.2  48.0 1015.0 17.2  1.014 -99.9 -99.99 -9.99
2020/01/18 22:00 EST   -0.27   0.66    9  226   11  44.4  48.0 1014.8 17.2  1.014 -99.9 -99.99 -9.99
2020/01/18 22:06 EST   -0.26   0.64    9  225   15  44.4  48.2 1014.6 17.2  1.014 -99.9 -99.99 -9.99
2020/01/18 22:12 EST   -0.26   0.62    9  216   13  44.4  48.2 1014.4 17.2  1.014 -99.9 -99.99 -9.99
2020/01/18 22:18 EST   -0.25   0.61   10  215   15  44.4  48.2 1014.2 17.2  1.014 -99.9 -99.99 -9.99
2020/01/18 22:24 EST   -0.25   0.62   12  216   15  44.6  48.2 1014.1 17.2  1.014 -99.9 -99.99 -9.99
2020/01/18 22:30 EST   -0.23   0.62   11  227   16  44.8  48.0 1014.1 17.2  1.014 -99.9 -99.99 -9.99
2020/01/18 22:36 EST   -0.22   0.63    9  224   18  44.8  48.0 1013.9 17.0  1.014 -99.9 -99.99 -9.99
2020/01/18 22:42 EST   -0.20   0.64    9  224   13  44.8  47.8 1013.9 17.0  1.014 -99.9 -99.99 -9.99
2020/01/18 22:48 EST   -0.18   0.63    9  248   11  44.8  48.0 1013.9 18.3  1.015 -99.9 -99.99 -9.99
2020/01/18 22:54 EST   -0.16   0.63   10  241   15  44.8  48.0 1013.7 17.1  1.014 -99.9 -99.99 -9.99
2020/01/18 23:00 EST   -0.14   0.63   11  236   16  44.8  48.0 1013.7 17.0  1.014 -99.9 -99.99 -9.99
2020/01/18 23:06 EST   -0.11   0.63    8  242   13  45.0  48.0 1013.5 17.3  1.014 -99.9 -99.99 -9.99
2020/01/18 23:12 EST   -0.08   0.64   11  239   15  45.0  48.0 1013.4 17.1  1.014 -99.9 -99.99 -9.99
2020/01/18 23:18 EST   -0.05   0.65   10  229   13  45.0  48.0 1013.1 16.9  1.014 -99.9 -99.99 -9.99
2020/01/18 23:24 EST   -0.01 -99.99 -999 -999 -999 -99.9 -99.9 -999.9 -9.9 -9.999 -99.9 -99.99 -9.99
2020/01/18 23:30 EST    0.02 -99.99 -999 -999 -999 -99.9 -99.9 -999.9 -9.9 -9.999 -99.9 -99.99 -9.99
2020/01/18 23:36 EST    0.06 -99.99 -999 -999 -999 -99.9 -99.9 -999.9 -9.9 -9.999 -99.9 -99.99 -9.99
2020/01/18 23:42 EST    0.10 -99.99 -999 -999 -999 -99.9 -99.9 -999.9 -9.9 -9.999 -99.9 -99.99 -9.99
2020/01/18 23:48 EST    0.15 -99.99 -999 -999 -999 -99.9 -99.9 -999.9 -9.9 -9.999 -99.9 -99.99 -9.99
2020/01/18 23:54 EST    0.19 -99.99 -999 -999 -999 -99.9 -99.9 -999.9 -9.9 -9.999 -99.9 -99.99 -9.99
2020/01/19 00:00 EST    0.24 -99.99 -999 -999 -999 -99.9 -99.9 -999.9 -9.9 -9.999 -99.9 -99.99 -9.99
2020/01/19 00:06 EST    0.29 -99.99 -999 -999 -999 -99.9 -99.9 -999.9 -9.9 -9.999 -99.9 -99.99 -9.99
2020/01/19 00:12 EST    0.34 -99.99 -999 -999 -999 -99.9 -99.9 -999.9 -9.9 -9.999 -99.9 -99.99 -9.99
2020/01/19 00:18 EST    0.39 -99.99 -999 -999 -999 -99.9 -99.9 -999.9 -9.9 -9.999 -99.9 -99.99 -9.99
2020/01/19 00:24 EST    0.45 -99.99 -999 -999 -999 -99.9 -99.9 -999.9 -9.9 -9.999 -99.9 -99.99 -9.99
2020/01/19 00:30 EST    0.50 -99.99 -999 -999 -999 -99.9 -99.9 -999.9 -9.9 -9.999 -99.9 -99.99 -9.99
2020/01/19 00:36 EST    0.56 -99.99 -999 -999 -999 -99.9 -99.9 -999.9 -9.9 -9.999 -99.9 -99.99 -9.99
2020/01/19 00:42 EST    0.62 -99.99 -999 -999 -999 -99.9 -99.9 -999.9 -9.9 -9.999 -99.9 -99.99 -9.99
2020/01/19 00:48 EST    0.68 -99.99 -999 -999 -999 -99.9 -99.9 -999.9 -9.9 -9.999 -99.9 -99.99 -9.99
2020/01/19 00:54 EST    0.74 -99.99 -999 -999 -999 -99.9 -99.9 -999.9 -9.9 -9.999 -99.9 -99.99 -9.99
2020/01/19 01:00 EST    0.80 -99.99 -999 -999 -999 -99.9 -99.9 -999.9 -9.9 -9.999 -99.9 -99.99 -9.99
2020/01/19 01:06 EST    0.86 -99.99 -999 -999 -999 -99.9 -99.9 -999.9 -9.9 -9.999 -99.9 -99.99 -9.99
2020/01/19 01:12 EST    0.92 -99.99 -999 -999 -999 -99.9 -99.9 -999.9 -9.9 -9.999 -99.9 -99.99 -9.99
2020/01/19 01:18 EST    0.98 -99.99 -999 -999 -999 -99.9 -99.9 -999.9 -9.9 -9.999 -99.9 -99.99 -9.99
2020/01/19 01:24 EST    1.05 -99.99 -999 -999 -999 -99.9 -99.9 -999.9 -9.9 -9.999 -99.9 -99.99 -9.99
2020/01/19 01:30 EST    1.11 -99.99 -999 -999 -999 -99.9 -99.9 -999.9 -9.9 -9.999 -99.9 -99.99 -9.99
2020/01/19 01:36 EST    1.17 -99.99 -999 -999 -999 -99.9 -99.9 -999.9 -9.9 -9.999 -99.9 -99.99 -9.99
2020/01/19 01:42 EST    1.23 -99.99 -999 -999 -999 -99.9 -99.9 -999.9 -9.9 -9.999 -99.9 -99.99 -9.99
2020/01/19 01:48 EST    1.29 -99.99 -999 -999 -999 -99.9 -99.9 -999.9 -9.9 -9.999 -99.9 -99.99 -9.99
2020/01/19 01:54 EST    1.35 -99.99 -999 -999 -999 -99.9 -99.9 -999.9 -9.9 -9.999 -99.9 -99.99 -9.99
2020/01/19 02:00 EST    1.41 -99.99 -999 -999 -999 -99.9 -99.9 -999.9 -9.9 -9.999 -99.9 -99.99 -9.99
2020/01/19 02:06 EST    1.47 -99.99 -999 -999 -999 -99.9 -99.9 -999.9 -9.9 -9.999 -99.9 -99.99 -9.99
2020/01/19 02:12 EST    1.52 -99.99 -999 -999 -999 -99.9 -99.9 -999.9 -9.9 -9.999 -99.9 -99.99 -9.99
2020/01/19 02:18 EST    1.58 -99.99 -999 -999 -999 -99.9 -99.9 -999.9 -9.9 -9.999 -99.9 -99.99 -9.99
2020/01/19 02:24 EST    1.63 -99.99 -999 -999 -999 -99.9 -99.9 -999.9 -9.9 -9.999 -99.9 -99.99 -9.99
2020/01/19 02:30 EST    1.68 -99.99 -999 -999 -999 -99.9 -99.9 -999.9 -9.9 -9.999 -99.9 -99.99 -9.99
2020/01/19 02:36 EST    1.73 -99.99 -999 -999 -999 -99.9 -99.9 -999.9 -9.9 -9.999 -99.9 -99.99 -9.99
2020/01/19 02:42 EST    1.77 -99.99 -999 -999 -999 -99.9 -99.9 -999.9 -9.9 -9.999 -99.9 -99.99 -9.99
2020/01/19 02:48 EST    1.82 -99.99 -999 -999 -999 -99.9 -99.9 -999.9 -9.9 -9.999 -99.9 -99.99 -9.99
2020/01/19 02:54 EST    1.86 -99.99 -999 -999 -999 -99.9 -99.9 -999.9 -9.9 -9.999 -99.9 -99.99 -9.99
2020/01/19 03:00 EST    1.89 -99.99 -999 -999 -999 -99.9 -99.9 -999.9 -9.9 -9.999 -99.9 -99.99 -9.99
2020/01/19 03:06 EST    1.93 -99.99 -999 -999 -999 -99.9 -99.9 -999.9 -9.9 -9.999 -99.9 -99.99 -9.99
2020/01/19 03:12 EST    1.96 -99.99 -999 -999 -999 -99.9 -99.9 -999.9 -9.9 -9.999 -99.9 -99.99 -9.99
2020/01/19 03:18 EST    1.99 -99.99 -999 -999 -999 -99.9 -99.9 -999.9 -9.9 -9.999 -99.9 -99.99 -9.99
2020/01/19 03:24 EST    2.02 -99.99 -999 -999 -999 -99.9 -99.9 -999.9 -9.9 -9.999 -99.9 -99.99 -9.99
2020/01/19 03:30 EST    2.04 -99.99 -999 -999 -999 -99.9 -99.9 -999.9 -9.9 -9.999 -99.9 -99.99 -9.99
2020/01/19 03:36 EST    2.06 -99.99 -999 -999 -999 -99.9 -99.9 -999.9 -9.9 -9.999 -99.9 -99.99 -9.99
2020/01/19 03:42 EST    2.08 -99.99 -999 -999 -999 -99.9 -99.9 -999.9 -9.9 -9.999 -99.9 -99.99 -9.99
2020/01/19 03:48 EST    2.09 -99.99 -999 -999 -999 -99.9 -99.9 -999.9 -9.9 -9.999 -99.9 -99.99 -9.99
2020/01/19 03:54 EST    2.11 -99.99 -999 -999 -999 -99.9 -99.9 -999.9 -9.9 -9.999 -99.9 -99.99 -9.99
2020/01/19 04:00 EST    2.12 -99.99 -999 -999 -999 -99.9 -99.9 -999.9 -9.9 -9.999 -99.9 -99.99 -9.99
2020/01/19 04:06 EST    2.12 -99.99 -999 -999 -999 -99.9 -99.9 -999.9 -9.9 -9.999 -99.9 -99.99 -9.99
2020/01/19 04:12 EST    2.12 -99.99 -999 -999 -999 -99.9 -99.9 -999.9 -9.9 -9.999 -99.9 -99.99 -9.99
2020/01/19 04:18 EST    2.13 -99.99 -999 -999 -999 -99.9 -99.9 -999.9 -9.9 -9.999 -99.9 -99.99 -9.99
2020/01/19 04:24 EST    2.12 -99.99 -999 -999 -999 -99.9 -99.9 -999.9 -9.9 -9.999 -99.9 -99.99 -9.99
2020/01/19 04:30 EST    2.12 -99.99 -999 -999 -999 -99.9 -99.9 -999.9 -9.9 -9.999 -99.9 -99.99 -9.99
2020/01/19 04:36 EST    2.11 -99.99 -999 -999 -999 -99.9 -99.9 -999.9 -9.9 -9.999 -99.9 -99.99 -9.99
2020/01/19 04:42 EST    2.10 -99.99 -999 -999 -999 -99.9 -99.9 -999.9 -9.9 -9.999 -99.9 -99.99 -9.99
2020/01/19 04:48 EST    2.09 -99.99 -999 -999 -999 -99.9 -99.9 -999.9 -9.9 -9.999 -99.9 -99.99 -9.99
2020/01/19 04:54 EST    2.08 -99.99 -999 -999 -999 -99.9 -99.9 -999.9 -9.9 -9.999 -99.9 -99.99 -9.99
2020/01/19 05:00 EST    2.07 -99.99 -999 -999 -999 -99.9 -99.9 -999.9 -9.9 -9.999 -99.9 -99.99 -9.99
2020/01/19 05:06 EST    2.05 -99.99 -999 -999 -999 -99.9 -99.9 -999.9 -9.9 -9.999 -99.9 -99.99 -9.99
2020/01/19 05:12 EST    2.03 -99.99 -999 -999 -999 -99.9 -99.9 -999.9 -9.9 -9.999 -99.9 -99.99 -9.99
2020/01/19 05:18 EST    2.01 -99.99 -999 -999 -999 -99.9 -99.9 -999.9 -9.9 -9.999 -99.9 -99.99 -9.99
2020/01/19 05:24 EST    1.98 -99.99 -999 -999 -999 -99.9 -99.9 -999.9 -9.9 -9.999 -99.9 -99.99 -9.99
2020/01/19 05:30 EST    1.96 -99.99 -999 -999 -999 -99.9 -99.9 -999.9 -9.9 -9.999 -99.9 -99.99 -9.99